sensor_id;sensor_type;location;lat;lon;timestamp;P1;durP1;ratioP1;P2;durP2;ratioP2
19923;SDS011;10124;53.068;18.224;2023-02-12T00:01:48;17.57;;;9.13;;
19923;SDS011;10124;53.068;18.224;2023-02-12T00:04:15;13.63;;;8.00;;
19923;SDS011;10124;53.068;18.224;2023-02-12T00:06:43;16.33;;;9.27;;
19923;SDS011;10124;53.068;18.224;2023-02-12T00:09:11;24.70;;;12.23;;
19923;SDS011;10124;53.068;18.224;2023-02-12T00:11:39;24.70;;;11.77;;
19923;SDS011;10124;53.068;18.224;2023-02-12T00:14:07;19.93;;;10.97;;
19923;SDS011;10124;53.068;18.224;2023-02-12T00:16:35;17.40;;;11.10;;
19923;SDS011;10124;53.068;18.224;2023-02-12T00:19:03;21.60;;;11.57;;
19923;SDS011;10124;53.068;18.224;2023-02-12T00:21:31;22.60;;;12.33;;
19923;SDS011;10124;53.068;18.224;2023-02-12T00:23:59;22.67;;;11.97;;
19923;SDS011;10124;53.068;18.224;2023-02-12T00:26:28;20.20;;;12.03;;
19923;SDS011;10124;53.068;18.224;2023-02-12T00:28:55;19.40;;;11.33;;
19923;SDS011;10124;53.068;18.224;2023-02-12T00:31:25;17.33;;;10.33;;
19923;SDS011;10124;53.068;18.224;2023-02-12T00:33:57;20.60;;;11.03;;
19923;SDS011;10124;53.068;18.224;2023-02-12T00:36:27;19.50;;;10.30;;
19923;SDS011;10124;53.068;18.224;2023-02-12T00:38:56;23.03;;;10.73;;
19923;SDS011;10124;53.068;18.224;2023-02-12T00:41:24;17.50;;;10.23;;
19923;SDS011;10124;53.068;18.224;2023-02-12T00:43:53;17.67;;;10.63;;
19923;SDS011;10124;53.068;18.224;2023-02-12T00:46:21;17.50;;;8.60;;
19923;SDS011;10124;53.068;18.224;2023-02-12T00:48:50;24.67;;;10.60;;
19923;SDS011;10124;53.068;18.224;2023-02-12T00:51:19;16.73;;;9.13;;
19923;SDS011;10124;53.068;18.224;2023-02-12T00:53:47;19.30;;;9.30;;
19923;SDS011;10124;53.068;18.224;2023-02-12T00:56:15;15.93;;;8.93;;
19923;SDS011;10124;53.068;18.224;2023-02-12T00:58:43;16.20;;;9.27;;
19923;SDS011;10124;53.068;18.224;2023-02-12T01:01:11;15.57;;;8.63;;
19923;SDS011;10124;53.068;18.224;2023-02-12T01:03:38;23.10;;;9.80;;
19923;SDS011;10124;53.068;18.224;2023-02-12T01:06:07;21.53;;;9.77;;
19923;SDS011;10124;53.068;18.224;2023-02-12T01:08:34;15.93;;;9.17;;
19923;SDS011;10124;53.068;18.224;2023-02-12T01:11:03;19.13;;;9.83;;
19923;SDS011;10124;53.068;18.224;2023-02-12T01:13:32;21.10;;;10.60;;
19923;SDS011;10124;53.068;18.224;2023-02-12T01:16:04;20.60;;;10.17;;
19923;SDS011;10124;53.068;18.224;2023-02-12T01:18:35;22.07;;;12.97;;
19923;SDS011;10124;53.068;18.224;2023-02-12T01:21:11;20.30;;;11.77;;
19923;SDS011;10124;53.068;18.224;2023-02-12T01:23:41;22.43;;;12.63;;
19923;SDS011;10124;53.068;18.224;2023-02-12T01:26:10;18.80;;;13.07;;
19923;SDS011;10124;53.068;18.224;2023-02-12T01:28:38;17.80;;;10.87;;
19923;SDS011;10124;53.068;18.224;2023-02-12T01:31:09;20.33;;;11.77;;
19923;SDS011;10124;53.068;18.224;2023-02-12T01:33:40;20.43;;;10.73;;
19923;SDS011;10124;53.068;18.224;2023-02-12T01:36:10;21.40;;;10.83;;
19923;SDS011;10124;53.068;18.224;2023-02-12T01:38:37;21.63;;;12.83;;
19923;SDS011;10124;53.068;18.224;2023-02-12T01:41:08;24.67;;;13.93;;
19923;SDS011;10124;53.068;18.224;2023-02-12T01:43:38;29.43;;;14.33;;
19923;SDS011;10124;53.068;18.224;2023-02-12T01:46:09;22.07;;;14.13;;
19923;SDS011;10124;53.068;18.224;2023-02-12T01:48:43;21.50;;;12.47;;
19923;SDS011;10124;53.068;18.224;2023-02-12T01:51:15;17.60;;;12.77;;
19923;SDS011;10124;53.068;18.224;2023-02-12T01:53:48;23.00;;;14.33;;
19923;SDS011;10124;53.068;18.224;2023-02-12T01:56:19;22.40;;;15.63;;
19923;SDS011;10124;53.068;18.224;2023-02-12T01:58:47;26.70;;;15.50;;
19923;SDS011;10124;53.068;18.224;2023-02-12T02:01:19;25.43;;;15.07;;
19923;SDS011;10124;53.068;18.224;2023-02-12T02:03:52;30.73;;;17.77;;
19923;SDS011;10124;53.068;18.224;2023-02-12T02:06:28;25.33;;;15.90;;
19923;SDS011;10124;53.068;18.224;2023-02-12T02:09:00;24.87;;;13.83;;
19923;SDS011;10124;53.068;18.224;2023-02-12T02:11:28;27.60;;;14.90;;
19923;SDS011;10124;53.068;18.224;2023-02-12T02:14:14;18.97;;;12.30;;
19923;SDS011;10124;53.068;18.224;2023-02-12T02:20:20;61.80;;;30.33;;
19923;SDS011;10124;53.068;18.224;2023-02-12T02:29:15;39.17;;;21.07;;
19923;SDS011;10124;53.068;18.224;2023-02-12T02:32:00;42.70;;;22.43;;
19923;SDS011;10124;53.068;18.224;2023-02-12T02:34:37;32.07;;;18.07;;
19923;SDS011;10124;53.068;18.224;2023-02-12T02:39:52;30.80;;;17.33;;
19923;SDS011;10124;53.068;18.224;2023-02-12T02:42:32;27.77;;;15.80;;
19923;SDS011;10124;53.068;18.224;2023-02-12T02:45:15;31.20;;;17.33;;
19923;SDS011;10124;53.068;18.224;2023-02-12T02:47:47;29.77;;;16.63;;
19923;SDS011;10124;53.068;18.224;2023-02-12T02:50:29;33.67;;;16.57;;
19923;SDS011;10124;53.068;18.224;2023-02-12T02:55:30;29.43;;;16.37;;
19923;SDS011;10124;53.068;18.224;2023-02-12T02:58:05;123.30;;;48.43;;
19923;SDS011;10124;53.068;18.224;2023-02-12T03:00:45;69.23;;;46.73;;
19923;SDS011;10124;53.068;18.224;2023-02-12T03:06:26;416.20;;;136.73;;
19923;SDS011;10124;53.068;18.224;2023-02-12T03:09:05;133.83;;;57.10;;
19923;SDS011;10124;53.068;18.224;2023-02-12T03:11:40;116.83;;;52.60;;
19923;SDS011;10124;53.068;18.224;2023-02-12T03:14:11;99.03;;;45.13;;
19923;SDS011;10124;53.068;18.224;2023-02-12T03:16:56;91.10;;;40.80;;
19923;SDS011;10124;53.068;18.224;2023-02-12T03:19:26;59.00;;;32.10;;
19923;SDS011;10124;53.068;18.224;2023-02-12T03:22:02;36.57;;;23.20;;
19923;SDS011;10124;53.068;18.224;2023-02-12T03:27:22;31.23;;;19.10;;
19923;SDS011;10124;53.068;18.224;2023-02-12T03:30:03;29.00;;;15.83;;
19923;SDS011;10124;53.068;18.224;2023-02-12T03:35:15;29.67;;;16.07;;
19923;SDS011;10124;53.068;18.224;2023-02-12T03:38:11;29.70;;;15.27;;
19923;SDS011;10124;53.068;18.224;2023-02-12T03:44:05;26.03;;;16.43;;
19923;SDS011;10124;53.068;18.224;2023-02-12T03:47:02;32.77;;;18.47;;
19923;SDS011;10124;53.068;18.224;2023-02-12T03:49:48;25.57;;;16.03;;
19923;SDS011;10124;53.068;18.224;2023-02-12T03:52:27;55.87;;;23.43;;
19923;SDS011;10124;53.068;18.224;2023-02-12T03:54:55;73.43;;;28.43;;
19923;SDS011;10124;53.068;18.224;2023-02-12T03:57:24;49.60;;;20.60;;
19923;SDS011;10124;53.068;18.224;2023-02-12T03:59:57;35.10;;;16.07;;
19923;SDS011;10124;53.068;18.224;2023-02-12T04:02:25;30.67;;;16.10;;
19923;SDS011;10124;53.068;18.224;2023-02-12T04:04:53;30.77;;;14.90;;
19923;SDS011;10124;53.068;18.224;2023-02-12T04:07:21;24.60;;;14.33;;
19923;SDS011;10124;53.068;18.224;2023-02-12T04:09:49;30.57;;;15.00;;
19923;SDS011;10124;53.068;18.224;2023-02-12T04:12:31;29.37;;;15.37;;
19923;SDS011;10124;53.068;18.224;2023-02-12T04:18:19;22.53;;;14.13;;
19923;SDS011;10124;53.068;18.224;2023-02-12T04:26:15;26.47;;;13.20;;
19923;SDS011;10124;53.068;18.224;2023-02-12T04:31:37;21.23;;;12.80;;
19923;SDS011;10124;53.068;18.224;2023-02-12T04:39:28;23.83;;;12.70;;
19923;SDS011;10124;53.068;18.224;2023-02-12T04:41:59;23.47;;;12.33;;
19923;SDS011;10124;53.068;18.224;2023-02-12T04:44:28;19.93;;;12.47;;
19923;SDS011;10124;53.068;18.224;2023-02-12T04:46:58;19.37;;;12.40;;
19923;SDS011;10124;53.068;18.224;2023-02-12T04:49:25;20.47;;;12.27;;
19923;SDS011;10124;53.068;18.224;2023-02-12T04:51:53;19.13;;;11.60;;
19923;SDS011;10124;53.068;18.224;2023-02-12T04:54:21;22.53;;;13.87;;
19923;SDS011;10124;53.068;18.224;2023-02-12T04:56:49;17.23;;;11.77;;
19923;SDS011;10124;53.068;18.224;2023-02-12T04:59:17;19.70;;;11.73;;
19923;SDS011;10124;53.068;18.224;2023-02-12T05:01:45;22.37;;;12.93;;
19923;SDS011;10124;53.068;18.224;2023-02-12T05:04:14;19.13;;;12.77;;
19923;SDS011;10124;53.068;18.224;2023-02-12T05:06:43;22.63;;;14.20;;
19923;SDS011;10124;53.068;18.224;2023-02-12T05:09:15;29.83;;;17.07;;
19923;SDS011;10124;53.068;18.224;2023-02-12T05:11:44;22.90;;;13.53;;
19923;SDS011;10124;53.068;18.224;2023-02-12T05:14:12;21.13;;;12.23;;
19923;SDS011;10124;53.068;18.224;2023-02-12T05:16:40;20.80;;;12.43;;
19923;SDS011;10124;53.068;18.224;2023-02-12T05:19:08;23.50;;;13.23;;
19923;SDS011;10124;53.068;18.224;2023-02-12T05:21:37;20.00;;;11.43;;
19923;SDS011;10124;53.068;18.224;2023-02-12T05:24:04;19.57;;;12.00;;
19923;SDS011;10124;53.068;18.224;2023-02-12T05:26:33;17.80;;;12.57;;
19923;SDS011;10124;53.068;18.224;2023-02-12T05:29:00;17.87;;;12.40;;
19923;SDS011;10124;53.068;18.224;2023-02-12T05:31:29;18.67;;;11.97;;
19923;SDS011;10124;53.068;18.224;2023-02-12T05:33:57;20.97;;;12.70;;
19923;SDS011;10124;53.068;18.224;2023-02-12T05:36:25;18.70;;;11.80;;
19923;SDS011;10124;53.068;18.224;2023-02-12T05:38:55;24.57;;;13.00;;
19923;SDS011;10124;53.068;18.224;2023-02-12T05:41:24;21.63;;;11.43;;
19923;SDS011;10124;53.068;18.224;2023-02-12T05:43:52;20.87;;;12.00;;
19923;SDS011;10124;53.068;18.224;2023-02-12T05:46:20;22.37;;;12.20;;
19923;SDS011;10124;53.068;18.224;2023-02-12T05:48:48;21.40;;;12.67;;
19923;SDS011;10124;53.068;18.224;2023-02-12T05:51:18;19.23;;;12.57;;
19923;SDS011;10124;53.068;18.224;2023-02-12T05:53:48;21.07;;;12.87;;
19923;SDS011;10124;53.068;18.224;2023-02-12T05:56:21;23.23;;;12.97;;
19923;SDS011;10124;53.068;18.224;2023-02-12T05:58:54;22.57;;;12.80;;
19923;SDS011;10124;53.068;18.224;2023-02-12T06:01:25;18.73;;;13.13;;
19923;SDS011;10124;53.068;18.224;2023-02-12T06:03:55;22.47;;;14.10;;
19923;SDS011;10124;53.068;18.224;2023-02-12T06:06:26;20.87;;;12.27;;
19923;SDS011;10124;53.068;18.224;2023-02-12T06:08:55;20.57;;;12.57;;
19923;SDS011;10124;53.068;18.224;2023-02-12T06:11:23;23.97;;;13.23;;
19923;SDS011;10124;53.068;18.224;2023-02-12T06:13:51;19.07;;;11.80;;
19923;SDS011;10124;53.068;18.224;2023-02-12T06:16:20;16.87;;;11.43;;
19923;SDS011;10124;53.068;18.224;2023-02-12T06:18:49;17.50;;;11.77;;
19923;SDS011;10124;53.068;18.224;2023-02-12T06:21:17;18.90;;;12.03;;
19923;SDS011;10124;53.068;18.224;2023-02-12T06:23:46;23.90;;;12.60;;
19923;SDS011;10124;53.068;18.224;2023-02-12T06:26:15;18.00;;;11.20;;
19923;SDS011;10124;53.068;18.224;2023-02-12T06:28:43;20.20;;;12.10;;
19923;SDS011;10124;53.068;18.224;2023-02-12T06:31:18;22.30;;;13.17;;
19923;SDS011;10124;53.068;18.224;2023-02-12T06:33:48;19.20;;;11.93;;
19923;SDS011;10124;53.068;18.224;2023-02-12T06:36:16;16.77;;;11.60;;
19923;SDS011;10124;53.068;18.224;2023-02-12T06:38:44;20.30;;;11.77;;
19923;SDS011;10124;53.068;18.224;2023-02-12T06:41:12;18.33;;;12.37;;
19923;SDS011;10124;53.068;18.224;2023-02-12T06:43:40;23.37;;;12.93;;
19923;SDS011;10124;53.068;18.224;2023-02-12T06:46:09;22.10;;;12.70;;
19923;SDS011;10124;53.068;18.224;2023-02-12T06:48:37;18.67;;;12.57;;
19923;SDS011;10124;53.068;18.224;2023-02-12T06:51:06;24.13;;;13.60;;
19923;SDS011;10124;53.068;18.224;2023-02-12T06:53:35;19.57;;;13.33;;
19923;SDS011;10124;53.068;18.224;2023-02-12T06:56:04;16.90;;;12.27;;
19923;SDS011;10124;53.068;18.224;2023-02-12T06:58:37;16.13;;;11.10;;
19923;SDS011;10124;53.068;18.224;2023-02-12T07:03:46;16.73;;;11.63;;
19923;SDS011;10124;53.068;18.224;2023-02-12T07:06:15;17.07;;;11.70;;
19923;SDS011;10124;53.068;18.224;2023-02-12T07:08:43;17.27;;;12.30;;
19923;SDS011;10124;53.068;18.224;2023-02-12T07:11:11;15.47;;;11.10;;
19923;SDS011;10124;53.068;18.224;2023-02-12T07:13:39;19.03;;;10.83;;
19923;SDS011;10124;53.068;18.224;2023-02-12T07:16:11;15.13;;;10.47;;
19923;SDS011;10124;53.068;18.224;2023-02-12T07:18:42;19.87;;;12.07;;
19923;SDS011;10124;53.068;18.224;2023-02-12T07:21:11;16.70;;;9.90;;
19923;SDS011;10124;53.068;18.224;2023-02-12T07:23:39;15.17;;;10.67;;
19923;SDS011;10124;53.068;18.224;2023-02-12T07:26:12;18.10;;;10.70;;
19923;SDS011;10124;53.068;18.224;2023-02-12T07:28:41;14.10;;;9.60;;
19923;SDS011;10124;53.068;18.224;2023-02-12T07:31:10;14.60;;;10.93;;
19923;SDS011;10124;53.068;18.224;2023-02-12T07:33:40;19.27;;;11.00;;
19923;SDS011;10124;53.068;18.224;2023-02-12T07:36:09;17.10;;;11.73;;
19923;SDS011;10124;53.068;18.224;2023-02-12T07:38:38;16.10;;;10.77;;
19923;SDS011;10124;53.068;18.224;2023-02-12T07:41:11;15.77;;;10.87;;
19923;SDS011;10124;53.068;18.224;2023-02-12T07:43:47;15.03;;;10.93;;
19923;SDS011;10124;53.068;18.224;2023-02-12T07:46:30;21.33;;;13.73;;
19923;SDS011;10124;53.068;18.224;2023-02-12T07:48:59;23.30;;;14.10;;
19923;SDS011;10124;53.068;18.224;2023-02-12T07:51:30;21.40;;;13.10;;
19923;SDS011;10124;53.068;18.224;2023-02-12T07:53:59;27.50;;;14.63;;
19923;SDS011;10124;53.068;18.224;2023-02-12T07:56:28;20.07;;;12.93;;
19923;SDS011;10124;53.068;18.224;2023-02-12T07:58:59;18.30;;;14.53;;
19923;SDS011;10124;53.068;18.224;2023-02-12T08:01:35;24.67;;;17.37;;
19923;SDS011;10124;53.068;18.224;2023-02-12T08:04:23;26.53;;;16.37;;
19923;SDS011;10124;53.068;18.224;2023-02-12T08:06:52;27.40;;;17.60;;
19923;SDS011;10124;53.068;18.224;2023-02-12T08:09:22;28.00;;;21.07;;
19923;SDS011;10124;53.068;18.224;2023-02-12T08:11:51;26.60;;;18.43;;
19923;SDS011;10124;53.068;18.224;2023-02-12T08:14:19;23.87;;;17.70;;
19923;SDS011;10124;53.068;18.224;2023-02-12T08:16:48;25.93;;;16.13;;
19923;SDS011;10124;53.068;18.224;2023-02-12T08:19:17;27.23;;;15.13;;
19923;SDS011;10124;53.068;18.224;2023-02-12T08:21:51;20.77;;;13.03;;
19923;SDS011;10124;53.068;18.224;2023-02-12T08:24:20;15.60;;;9.53;;
19923;SDS011;10124;53.068;18.224;2023-02-12T08:26:48;25.67;;;11.60;;
19923;SDS011;10124;53.068;18.224;2023-02-12T08:29:17;19.27;;;10.53;;
19923;SDS011;10124;53.068;18.224;2023-02-12T08:31:47;18.77;;;10.30;;
19923;SDS011;10124;53.068;18.224;2023-02-12T08:34:17;16.73;;;11.70;;
19923;SDS011;10124;53.068;18.224;2023-02-12T08:36:47;14.47;;;8.50;;
19923;SDS011;10124;53.068;18.224;2023-02-12T08:39:16;13.67;;;8.23;;
19923;SDS011;10124;53.068;18.224;2023-02-12T08:41:45;13.23;;;8.30;;
19923;SDS011;10124;53.068;18.224;2023-02-12T08:44:14;14.23;;;8.90;;
19923;SDS011;10124;53.068;18.224;2023-02-12T08:46:43;13.60;;;8.10;;
19923;SDS011;10124;53.068;18.224;2023-02-12T08:49:13;13.93;;;8.43;;
19923;SDS011;10124;53.068;18.224;2023-02-12T08:51:46;15.47;;;8.07;;
19923;SDS011;10124;53.068;18.224;2023-02-12T08:54:17;13.83;;;8.03;;
19923;SDS011;10124;53.068;18.224;2023-02-12T08:56:46;16.07;;;8.73;;
19923;SDS011;10124;53.068;18.224;2023-02-12T08:59:14;12.90;;;9.13;;
19923;SDS011;10124;53.068;18.224;2023-02-12T09:01:42;17.80;;;8.60;;
19923;SDS011;10124;53.068;18.224;2023-02-12T09:04:14;17.00;;;11.40;;
19923;SDS011;10124;53.068;18.224;2023-02-12T09:06:44;12.97;;;8.77;;
19923;SDS011;10124;53.068;18.224;2023-02-12T09:09:12;13.10;;;8.37;;
19923;SDS011;10124;53.068;18.224;2023-02-12T09:11:41;17.40;;;9.53;;
19923;SDS011;10124;53.068;18.224;2023-02-12T09:14:11;16.87;;;8.07;;
19923;SDS011;10124;53.068;18.224;2023-02-12T09:16:41;12.57;;;7.03;;
19923;SDS011;10124;53.068;18.224;2023-02-12T09:19:11;12.73;;;8.03;;
19923;SDS011;10124;53.068;18.224;2023-02-12T09:21:39;14.23;;;8.00;;
19923;SDS011;10124;53.068;18.224;2023-02-12T09:24:08;10.23;;;7.17;;
19923;SDS011;10124;53.068;18.224;2023-02-12T09:26:36;10.60;;;5.87;;
19923;SDS011;10124;53.068;18.224;2023-02-12T09:29:05;13.00;;;7.13;;
19923;SDS011;10124;53.068;18.224;2023-02-12T09:31:34;12.93;;;7.33;;
19923;SDS011;10124;53.068;18.224;2023-02-12T09:34:05;9.47;;;5.87;;
19923;SDS011;10124;53.068;18.224;2023-02-12T09:36:33;13.37;;;6.63;;
19923;SDS011;10124;53.068;18.224;2023-02-12T09:39:05;11.17;;;6.80;;
19923;SDS011;10124;53.068;18.224;2023-02-12T09:44:25;15.50;;;7.57;;
19923;SDS011;10124;53.068;18.224;2023-02-12T09:52:37;14.83;;;7.10;;
19923;SDS011;10124;53.068;18.224;2023-02-12T09:55:17;13.70;;;7.77;;
19923;SDS011;10124;53.068;18.224;2023-02-12T09:57:47;12.90;;;8.07;;
19923;SDS011;10124;53.068;18.224;2023-02-12T10:00:18;14.43;;;7.73;;
19923;SDS011;10124;53.068;18.224;2023-02-12T10:02:52;11.50;;;7.33;;
19923;SDS011;10124;53.068;18.224;2023-02-12T10:10:49;16.17;;;6.93;;
19923;SDS011;10124;53.068;18.224;2023-02-12T10:16:22;14.33;;;7.77;;
19923;SDS011;10124;53.068;18.224;2023-02-12T10:26:37;10.67;;;6.20;;
19923;SDS011;10124;53.068;18.224;2023-02-12T10:29:19;13.60;;;6.67;;
19923;SDS011;10124;53.068;18.224;2023-02-12T10:31:54;15.37;;;6.73;;
19923;SDS011;10124;53.068;18.224;2023-02-12T10:34:32;14.27;;;7.50;;
19923;SDS011;10124;53.068;18.224;2023-02-12T10:39:58;14.33;;;8.53;;
19923;SDS011;10124;53.068;18.224;2023-02-12T10:42:35;18.80;;;10.97;;
19923;SDS011;10124;53.068;18.224;2023-02-12T10:45:08;22.73;;;13.30;;
19923;SDS011;10124;53.068;18.224;2023-02-12T10:47:44;22.67;;;13.57;;
19923;SDS011;10124;53.068;18.224;2023-02-12T10:52:47;17.73;;;11.57;;
19923;SDS011;10124;53.068;18.224;2023-02-12T10:57:52;22.93;;;11.17;;
19923;SDS011;10124;53.068;18.224;2023-02-12T11:00:26;26.80;;;11.17;;
19923;SDS011;10124;53.068;18.224;2023-02-12T11:05:39;20.03;;;9.97;;
19923;SDS011;10124;53.068;18.224;2023-02-12T11:08:42;23.97;;;10.10;;
19923;SDS011;10124;53.068;18.224;2023-02-12T11:13:35;23.20;;;11.77;;
19923;SDS011;10124;53.068;18.224;2023-02-12T11:16:04;16.57;;;10.90;;
19923;SDS011;10124;53.068;18.224;2023-02-12T11:18:32;18.80;;;11.00;;
19923;SDS011;10124;53.068;18.224;2023-02-12T11:23:40;17.63;;;10.27;;
19923;SDS011;10124;53.068;18.224;2023-02-12T11:28:56;23.57;;;12.40;;
19923;SDS011;10124;53.068;18.224;2023-02-12T11:36:35;20.17;;;11.77;;
19923;SDS011;10124;53.068;18.224;2023-02-12T11:39:03;22.73;;;13.70;;
19923;SDS011;10124;53.068;18.224;2023-02-12T11:41:38;25.27;;;14.10;;
19923;SDS011;10124;53.068;18.224;2023-02-12T11:44:20;27.90;;;13.93;;
19923;SDS011;10124;53.068;18.224;2023-02-12T11:46:53;28.80;;;13.90;;
19923;SDS011;10124;53.068;18.224;2023-02-12T11:49:24;26.27;;;14.83;;
19923;SDS011;10124;53.068;18.224;2023-02-12T11:51:55;29.67;;;14.20;;
19923;SDS011;10124;53.068;18.224;2023-02-12T11:54:27;23.67;;;13.20;;
19923;SDS011;10124;53.068;18.224;2023-02-12T11:56:56;28.07;;;14.17;;
19923;SDS011;10124;53.068;18.224;2023-02-12T11:59:30;30.27;;;14.57;;
19923;SDS011;10124;53.068;18.224;2023-02-12T12:02:15;27.47;;;14.63;;
19923;SDS011;10124;53.068;18.224;2023-02-12T12:04:47;26.57;;;15.23;;
19923;SDS011;10124;53.068;18.224;2023-02-12T12:07:24;29.30;;;15.40;;
19923;SDS011;10124;53.068;18.224;2023-02-12T12:09:58;34.97;;;15.20;;
19923;SDS011;10124;53.068;18.224;2023-02-12T12:12:33;30.67;;;16.40;;
19923;SDS011;10124;53.068;18.224;2023-02-12T12:15:06;30.77;;;15.33;;
19923;SDS011;10124;53.068;18.224;2023-02-12T12:18:21;28.97;;;15.83;;
19923;SDS011;10124;53.068;18.224;2023-02-12T12:24:48;37.60;;;17.47;;
19923;SDS011;10124;53.068;18.224;2023-02-12T12:27:30;35.67;;;16.67;;
19923;SDS011;10124;53.068;18.224;2023-02-12T12:30:35;30.60;;;15.73;;
19923;SDS011;10124;53.068;18.224;2023-02-12T12:33:11;36.30;;;17.10;;
19923;SDS011;10124;53.068;18.224;2023-02-12T12:38:52;27.83;;;15.27;;
19923;SDS011;10124;53.068;18.224;2023-02-12T12:41:26;31.47;;;17.00;;
19923;SDS011;10124;53.068;18.224;2023-02-12T12:52:17;34.37;;;18.53;;
19923;SDS011;10124;53.068;18.224;2023-02-12T12:55:01;34.27;;;16.93;;
19923;SDS011;10124;53.068;18.224;2023-02-12T13:09:07;44.97;;;18.70;;
19923;SDS011;10124;53.068;18.224;2023-02-12T13:22:34;47.10;;;20.67;;
19923;SDS011;10124;53.068;18.224;2023-02-12T13:27:51;43.10;;;20.57;;
19923;SDS011;10124;53.068;18.224;2023-02-12T13:30:24;41.23;;;19.47;;
19923;SDS011;10124;53.068;18.224;2023-02-12T13:35:47;42.57;;;20.70;;
19923;SDS011;10124;53.068;18.224;2023-02-12T13:38:25;51.23;;;22.63;;
19923;SDS011;10124;53.068;18.224;2023-02-12T13:41:04;44.00;;;22.70;;
19923;SDS011;10124;53.068;18.224;2023-02-12T13:43:42;47.10;;;22.00;;
19923;SDS011;10124;53.068;18.224;2023-02-12T14:08:01;47.10;;;22.73;;
19923;SDS011;10124;53.068;18.224;2023-02-12T14:10:35;48.07;;;23.00;;
19923;SDS011;10124;53.068;18.224;2023-02-12T14:13:12;47.37;;;24.10;;
19923;SDS011;10124;53.068;18.224;2023-02-12T14:15:51;44.53;;;21.63;;
19923;SDS011;10124;53.068;18.224;2023-02-12T14:23:39;46.67;;;22.63;;
19923;SDS011;10124;53.068;18.224;2023-02-12T14:26:20;47.00;;;21.87;;
19923;SDS011;10124;53.068;18.224;2023-02-12T14:36:45;48.80;;;21.93;;
19923;SDS011;10124;53.068;18.224;2023-02-12T14:41:48;45.83;;;24.03;;
19923;SDS011;10124;53.068;18.224;2023-02-12T14:49:26;47.33;;;21.40;;
19923;SDS011;10124;53.068;18.224;2023-02-12T14:52:02;37.63;;;17.33;;
19923;SDS011;10124;53.068;18.224;2023-02-12T14:54:33;44.73;;;19.47;;
19923;SDS011;10124;53.068;18.224;2023-02-12T14:57:04;39.50;;;17.97;;
19923;SDS011;10124;53.068;18.224;2023-02-12T14:59:37;37.40;;;16.73;;
19923;SDS011;10124;53.068;18.224;2023-02-12T15:02:12;32.73;;;15.97;;
19923;SDS011;10124;53.068;18.224;2023-02-12T15:04:40;35.40;;;15.23;;
19923;SDS011;10124;53.068;18.224;2023-02-12T15:07:16;32.50;;;14.93;;
19923;SDS011;10124;53.068;18.224;2023-02-12T15:09:52;32.03;;;14.20;;
19923;SDS011;10124;53.068;18.224;2023-02-12T15:12:28;28.73;;;13.67;;
19923;SDS011;10124;53.068;18.224;2023-02-12T15:17:33;33.20;;;13.03;;
19923;SDS011;10124;53.068;18.224;2023-02-12T15:20:22;27.47;;;12.17;;
19923;SDS011;10124;53.068;18.224;2023-02-12T15:22:53;31.77;;;12.53;;
19923;SDS011;10124;53.068;18.224;2023-02-12T15:25:31;26.63;;;11.93;;
19923;SDS011;10124;53.068;18.224;2023-02-12T15:28:03;30.03;;;11.80;;
19923;SDS011;10124;53.068;18.224;2023-02-12T15:30:34;32.20;;;12.57;;
19923;SDS011;10124;53.068;18.224;2023-02-12T15:33:04;35.63;;;11.93;;
19923;SDS011;10124;53.068;18.224;2023-02-12T15:35:33;27.13;;;10.87;;
19923;SDS011;10124;53.068;18.224;2023-02-12T15:38:03;23.90;;;10.30;;
19923;SDS011;10124;53.068;18.224;2023-02-12T15:40:33;34.40;;;12.97;;
19923;SDS011;10124;53.068;18.224;2023-02-12T15:43:05;24.23;;;11.13;;
19923;SDS011;10124;53.068;18.224;2023-02-12T15:45:36;30.10;;;12.77;;
19923;SDS011;10124;53.068;18.224;2023-02-12T15:51:25;26.33;;;11.67;;
19923;SDS011;10124;53.068;18.224;2023-02-12T15:53:25;25.87;;;11.17;;
19923;SDS011;10124;53.068;18.224;2023-02-12T15:55:56;27.40;;;11.73;;
19923;SDS011;10124;53.068;18.224;2023-02-12T15:58:29;29.67;;;11.50;;
19923;SDS011;10124;53.068;18.224;2023-02-12T16:00:59;32.83;;;12.73;;
19923;SDS011;10124;53.068;18.224;2023-02-12T16:03:32;29.47;;;13.27;;
19923;SDS011;10124;53.068;18.224;2023-02-12T16:06:02;36.30;;;12.03;;
19923;SDS011;10124;53.068;18.224;2023-02-12T16:08:31;29.40;;;12.13;;
19923;SDS011;10124;53.068;18.224;2023-02-12T16:11:00;33.73;;;13.10;;
19923;SDS011;10124;53.068;18.224;2023-02-12T16:13:41;36.93;;;11.97;;
19923;SDS011;10124;53.068;18.224;2023-02-12T16:18:40;31.30;;;13.00;;
19923;SDS011;10124;53.068;18.224;2023-02-12T16:21:16;27.97;;;12.53;;
19923;SDS011;10124;53.068;18.224;2023-02-12T16:23:46;37.37;;;12.23;;
19923;SDS011;10124;53.068;18.224;2023-02-12T16:26:18;39.33;;;14.60;;
19923;SDS011;10124;53.068;18.224;2023-02-12T16:28:47;42.83;;;12.90;;
19923;SDS011;10124;53.068;18.224;2023-02-12T16:31:15;27.50;;;10.83;;
19923;SDS011;10124;53.068;18.224;2023-02-12T16:33:45;30.47;;;11.40;;
19923;SDS011;10124;53.068;18.224;2023-02-12T16:38:49;35.40;;;11.33;;
19923;SDS011;10124;53.068;18.224;2023-02-12T16:44:19;33.50;;;10.60;;
19923;SDS011;10124;53.068;18.224;2023-02-12T16:46:46;35.63;;;11.93;;
19923;SDS011;10124;53.068;18.224;2023-02-12T16:49:19;33.73;;;10.37;;
19923;SDS011;10124;53.068;18.224;2023-02-12T16:51:47;33.30;;;11.37;;
19923;SDS011;10124;53.068;18.224;2023-02-12T16:56:53;33.57;;;11.17;;
19923;SDS011;10124;53.068;18.224;2023-02-12T16:59:22;38.70;;;12.43;;
19923;SDS011;10124;53.068;18.224;2023-02-12T17:01:59;35.10;;;12.13;;
19923;SDS011;10124;53.068;18.224;2023-02-12T17:04:27;45.90;;;11.37;;
19923;SDS011;10124;53.068;18.224;2023-02-12T17:06:56;32.90;;;11.93;;
19923;SDS011;10124;53.068;18.224;2023-02-12T17:09:24;35.00;;;11.47;;
19923;SDS011;10124;53.068;18.224;2023-02-12T17:11:56;34.80;;;11.37;;
19923;SDS011;10124;53.068;18.224;2023-02-12T17:14:24;38.77;;;12.67;;
19923;SDS011;10124;53.068;18.224;2023-02-12T17:16:52;35.50;;;12.67;;
19923;SDS011;10124;53.068;18.224;2023-02-12T17:19:20;33.10;;;11.10;;
19923;SDS011;10124;53.068;18.224;2023-02-12T17:21:49;41.67;;;11.17;;
19923;SDS011;10124;53.068;18.224;2023-02-12T17:26:49;30.53;;;11.27;;
19923;SDS011;10124;53.068;18.224;2023-02-12T17:29:18;36.07;;;13.07;;
19923;SDS011;10124;53.068;18.224;2023-02-12T17:31:48;39.47;;;11.87;;
19923;SDS011;10124;53.068;18.224;2023-02-12T17:34:16;36.77;;;13.17;;
19923;SDS011;10124;53.068;18.224;2023-02-12T17:36:44;42.10;;;12.90;;
19923;SDS011;10124;53.068;18.224;2023-02-12T17:39:14;32.07;;;13.67;;
19923;SDS011;10124;53.068;18.224;2023-02-12T17:41:42;41.57;;;12.53;;
19923;SDS011;10124;53.068;18.224;2023-02-12T17:44:11;35.07;;;15.13;;
19923;SDS011;10124;53.068;18.224;2023-02-12T17:46:42;32.80;;;13.37;;
19923;SDS011;10124;53.068;18.224;2023-02-12T17:49:11;48.93;;;15.70;;
19923;SDS011;10124;53.068;18.224;2023-02-12T17:51:40;53.60;;;20.53;;
19923;SDS011;10124;53.068;18.224;2023-02-12T17:54:09;52.37;;;18.10;;
19923;SDS011;10124;53.068;18.224;2023-02-12T17:56:38;40.93;;;15.40;;